Time;durP1;ratioP1;P1;durP2;ratioP2;P2;SDS_P1;SDS_P2;PMS_P1;PMS_P2;Temp;Humidity;BMP_temperature;BMP_pressure;BME280_temperature;BME280_humidity;BME280_pressure;Samples;Min_cycle;Max_cycle;Signal;HPM_P1;HPM_P2
2023/01/01 00:01:40;;;;;;;;;;;17.60;99.90;;;;;;7351365;19;109956;-93
2023/01/01 00:04:10;;;;;;;;;;;17.50;99.90;;;;;;7351441;19;113273;-95
2023/01/01 00:06:37;;;;;;;;;;;17.60;99.90;;;;;;7352693;19;108503;-93
2023/01/01 00:11:49;;;;;;;;;;;17.60;99.90;;;;;;7355383;19;108064;-94
2023/01/01 00:14:16;;;;;;;;;;;17.60;99.90;;;;;;7353684;19;110706;-93
2023/01/01 00:16:43;;;;;;;;;;;17.50;99.90;;;;;;7352969;19;111463;-93
2023/01/01 00:19:10;;;;;;;;;;;17.50;99.90;;;;;;7354152;19;108560;-93
2023/01/01 00:21:38;;;;;;;;;;;17.60;99.90;;;;;;7352641;19;109554;-93
2023/01/01 00:24:06;;;;;;;;;;;17.60;99.90;;;;;;7351421;19;110783;-92
2023/01/01 00:26:33;;;;;;;;;;;17.50;99.90;;;;;;7353387;19;108854;-93
2023/01/01 00:29:02;;;;;;;;;;;17.50;99.90;;;;;;7356525;19;109613;-93
2023/01/01 00:31:29;;;;;;;;;;;17.50;99.90;;;;;;7349938;19;108956;-93
2023/01/01 00:33:56;;;;;;;;;;;17.50;99.90;;;;;;7352368;19;110181;-93
2023/01/01 00:36:24;;;;;;;;;;;17.50;99.90;;;;;;7348883;19;111551;-92
2023/01/01 00:38:51;;;;;;;;;;;17.40;99.90;;;;;;7350080;19;108390;-93
2023/01/01 00:41:18;;;;;;;;;;;17.40;99.90;;;;;;7349528;19;111946;-92
2023/01/01 00:43:45;;;;;;;;;;;17.30;99.90;;;;;;7350485;19;110308;-94
2023/01/01 00:46:12;;;;;;;;;;;17.40;99.90;;;;;;7349701;19;108451;-91
2023/01/01 00:48:40;;;;;;;;;;;17.30;99.90;;;;;;7351613;19;109455;-92
2023/01/01 00:51:06;;;;;;;;;;;17.30;99.90;;;;;;7355460;19;111523;-93
2023/01/01 00:53:33;;;;;;;;;;;17.30;99.90;;;;;;7349146;19;111674;-93
2023/01/01 00:56:00;;;;;;;;;;;17.20;99.90;;;;;;7349422;19;110104;-92
2023/01/01 00:58:27;;;;;;;;;;;17.30;99.90;;;;;;7350085;19;108603;-94
2023/01/01 01:00:54;;;;;;;;;;;17.20;99.90;;;;;;7351358;19;109586;-93
2023/01/01 01:03:27;;;;;;;;;;;17.20;99.90;;;;;;7346814;19;113167;-93
2023/01/01 01:06:00;;;;;;;;;;;17.20;99.90;;;;;;7348174;19;108513;-93
2023/01/01 01:08:29;;;;;;;;;;;17.10;99.90;;;;;;7348541;19;108907;-93
2023/01/01 01:11:07;;;;;;;;;;;17.10;99.90;;;;;;7349001;19;111798;-93
2023/01/01 01:13:34;;;;;;;;;;;17.00;99.90;;;;;;7353035;19;109597;-93
2023/01/01 01:16:06;;;;;;;;;;;17.00;99.90;;;;;;7347615;19;113098;-93
2023/01/01 01:18:33;;;;;;;;;;;17.00;99.90;;;;;;7349421;19;108577;-92
2023/01/01 01:21:00;;;;;;;;;;;17.00;99.90;;;;;;7348285;19;110915;-94
2023/01/01 01:23:27;;;;;;;;;;;16.90;99.90;;;;;;7347081;19;111896;-92
2023/01/01 01:25:54;;;;;;;;;;;16.90;99.90;;;;;;7348098;19;108506;-92
2023/01/01 01:28:21;;;;;;;;;;;16.90;99.90;;;;;;7351166;19;111399;-93
2023/01/01 01:30:47;;;;;;;;;;;16.90;99.90;;;;;;7348924;19;112742;-92
2023/01/01 01:33:14;;;;;;;;;;;16.90;99.90;;;;;;7347661;19;109835;-92
2023/01/01 01:35:41;;;;;;;;;;;16.80;99.90;;;;;;7355335;19;108286;-92
2023/01/01 01:38:09;;;;;;;;;;;16.80;99.90;;;;;;7349280;19;109178;-92
2023/01/01 01:40:40;;;;;;;;;;;16.80;99.90;;;;;;7347705;19;110554;-91
2023/01/01 01:43:11;;;;;;;;;;;16.80;99.90;;;;;;7347563;19;112879;-92
2023/01/01 01:45:38;;;;;;;;;;;16.80;99.90;;;;;;7348079;19;109689;-92
2023/01/01 01:48:06;;;;;;;;;;;16.80;99.90;;;;;;7347120;19;112071;-91
2023/01/01 01:50:36;;;;;;;;;;;16.80;99.90;;;;;;7346896;19;111999;-91
2023/01/01 01:53:05;;;;;;;;;;;16.70;99.90;;;;;;7347800;19;111877;-92
2023/01/01 01:55:34;;;;;;;;;;;16.80;99.90;;;;;;7345905;19;112133;-93
2023/01/01 01:58:01;;;;;;;;;;;16.80;99.90;;;;;;7352234;19;111619;-92
2023/01/01 02:00:28;;;;;;;;;;;16.80;99.90;;;;;;7347040;19;110566;-91
2023/01/01 02:03:00;;;;;;;;;;;16.70;99.90;;;;;;7348039;19;113172;-95
2023/01/01 02:05:27;;;;;;;;;;;16.70;99.90;;;;;;7346369;19;108832;-92
2023/01/01 02:07:55;;;;;;;;;;;16.70;99.90;;;;;;7347822;19;112048;-92
2023/01/01 02:10:22;;;;;;;;;;;16.70;99.90;;;;;;7345600;19;111815;-93
2023/01/01 02:12:49;;;;;;;;;;;16.70;99.90;;;;;;7347048;19;109133;-92
2023/01/01 02:15:20;;;;;;;;;;;16.70;99.90;;;;;;7345645;19;119528;-92
2023/01/01 02:18:01;;;;;;;;;;;16.60;99.90;;;;;;7345534;19;113659;-90
2023/01/01 02:20:28;;;;;;;;;;;16.60;99.90;;;;;;7352521;19;110558;-92
2023/01/01 02:22:58;;;;;;;;;;;16.50;99.90;;;;;;7346723;19;111797;-92
2023/01/01 02:25:49;;;;;;;;;;;16.50;99.90;;;;;;7347598;19;108274;-92
2023/01/01 02:28:28;;;;;;;;;;;16.40;99.90;;;;;;7346548;19;110590;-92
2023/01/01 02:30:58;;;;;;;;;;;16.40;99.90;;;;;;7346951;19;112500;-92
2023/01/01 02:33:25;;;;;;;;;;;16.30;99.90;;;;;;7345311;19;108623;-92
2023/01/01 02:35:58;;;;;;;;;;;16.30;99.90;;;;;;7346544;19;110587;-92
2023/01/01 02:38:33;;;;;;;;;;;16.40;99.90;;;;;;7345622;19;108914;-95
2023/01/01 02:41:11;;;;;;;;;;;16.30;99.90;;;;;;7352810;19;107978;-91
2023/01/01 02:43:38;;;;;;;;;;;16.30;99.90;;;;;;7347057;19;111974;-91
2023/01/01 02:46:07;;;;;;;;;;;16.30;99.90;;;;;;7347746;19;108542;-90
2023/01/01 02:48:42;;;;;;;;;;;16.30;99.90;;;;;;7343900;19;111443;-92
2023/01/01 02:51:27;;;;;;;;;;;16.30;99.90;;;;;;7347040;19;110206;-92
2023/01/01 02:53:57;;;;;;;;;;;16.40;99.90;;;;;;7345733;19;108438;-90
2023/01/01 02:56:30;;;;;;;;;;;16.30;99.90;;;;;;7345806;19;111390;-91
2023/01/01 03:02:03;;;;;;;;;;;16.30;99.90;;;;;;7346977;19;108417;-90
2023/01/01 03:04:39;;;;;;;;;;;16.30;99.90;;;;;;7350902;19;111806;-91
2023/01/01 03:07:12;;;;;;;;;;;16.30;99.90;;;;;;7345585;19;108434;-91
2023/01/01 03:09:49;;;;;;;;;;;16.30;99.90;;;;;;7346088;19;111648;-91
2023/01/01 03:12:24;;;;;;;;;;;16.40;99.90;;;;;;7343490;19;112323;-92
2023/01/01 03:15:00;;;;;;;;;;;16.30;99.90;;;;;;7345292;19;108423;-91
2023/01/01 03:17:56;;;;;;;;;;;16.40;99.90;;;;;;7343109;19;109565;-92
2023/01/01 03:20:25;;;;;;;;;;;16.30;99.90;;;;;;7341717;19;112793;-91
2023/01/01 03:22:53;;;;;;;;;;;16.40;99.90;;;;;;7344846;19;108475;-91
2023/01/01 03:25:41;;;;;;;;;;;16.30;99.90;;;;;;7344311;19;112248;-92
2023/01/01 03:28:11;;;;;;;;;;;16.30;99.90;;;;;;7351018;19;113144;-91
2023/01/01 03:30:38;;;;;;;;;;;16.30;99.90;;;;;;7346772;19;112266;-92
2023/01/01 03:33:17;;;;;;;;;;;16.40;99.90;;;;;;7351641;19;113063;-91
2023/01/01 03:35:56;;;;;;;;;;;16.40;99.90;;;;;;7354249;19;108459;-91
2023/01/01 03:38:27;;;;;;;;;;;16.40;99.90;;;;;;7351201;19;108710;-92
2023/01/01 03:40:58;;;;;;;;;;;16.30;99.90;;;;;;7350902;19;109638;-94
2023/01/01 03:43:44;;;;;;;;;;;16.40;99.90;;;;;;7352117;19;108408;-92
2023/01/01 03:46:12;;;;;;;;;;;16.30;99.90;;;;;;7351763;19;110158;-92
2023/01/01 03:48:57;;;;;;;;;;;16.30;99.90;;;;;;7351075;19;113387;-92
2023/01/01 03:51:36;;;;;;;;;;;16.30;99.90;;;;;;7358071;19;108432;-92
2023/01/01 03:54:06;;;;;;;;;;;16.20;99.90;;;;;;7350181;19;113331;-92
2023/01/01 03:56:39;;;;;;;;;;;16.20;99.90;;;;;;7351019;19;112536;-92
2023/01/01 03:59:20;;;;;;;;;;;16.20;99.90;;;;;;7351438;19;110674;-92
2023/01/01 04:01:49;;;;;;;;;;;16.20;99.90;;;;;;7351866;19;110548;-91
2023/01/01 04:04:16;;;;;;;;;;;16.30;99.90;;;;;;7352692;19;108247;-91
2023/01/01 04:06:43;;;;;;;;;;;16.20;99.90;;;;;;7350736;19;110866;-92
2023/01/01 04:09:14;;;;;;;;;;;16.20;99.90;;;;;;7349642;19;113206;-92
2023/01/01 04:12:02;;;;;;;;;;;16.10;99.90;;;;;;7351235;19;108297;-92
2023/01/01 04:14:33;;;;;;;;;;;16.10;99.90;;;;;;7355348;19;110640;-93
2023/01/01 04:17:00;;;;;;;;;;;16.10;99.90;;;;;;7350243;19;108328;-91
2023/01/01 04:19:27;;;;;;;;;;;16.10;99.90;;;;;;7349959;19;112252;-93
2023/01/01 04:21:54;;;;;;;;;;;16.10;99.90;;;;;;7351725;19;109991;-91
2023/01/01 04:24:22;;;;;;;;;;;16.00;99.90;;;;;;7351916;19;108334;-91
2023/01/01 04:26:50;;;;;;;;;;;16.00;99.90;;;;;;7350687;19;110449;-92
2023/01/01 04:29:17;;;;;;;;;;;16.00;99.90;;;;;;7350221;19;110372;-91
2023/01/01 04:31:44;;;;;;;;;;;16.00;99.90;;;;;;7350628;19;109701;-92
2023/01/01 04:34:10;;;;;;;;;;;15.90;99.90;;;;;;7351772;19;112758;-95
2023/01/01 04:36:37;;;;;;;;;;;15.90;99.90;;;;;;7354698;19;109149;-92
2023/01/01 04:39:04;;;;;;;;;;;15.90;99.90;;;;;;7350248;19;108934;-92
2023/01/01 04:41:31;;;;;;;;;;;15.90;99.90;;;;;;7348116;19;112709;-93
2023/01/01 04:43:59;;;;;;;;;;;15.90;99.90;;;;;;7349093;19;112130;-92
2023/01/01 04:46:26;;;;;;;;;;;15.90;99.90;;;;;;7351107;19;111983;-92
2023/01/01 04:48:53;;;;;;;;;;;15.90;99.90;;;;;;7350660;19;111909;-92
2023/01/01 04:51:20;;;;;;;;;;;15.90;99.90;;;;;;7351103;19;108341;-91
2023/01/01 04:53:47;;;;;;;;;;;15.90;99.90;;;;;;7349728;19;111944;-91
2023/01/01 04:56:18;;;;;;;;;;;15.90;99.90;;;;;;7354266;19;111311;-93
2023/01/01 04:58:45;;;;;;;;;;;15.90;99.90;;;;;;7350297;19;112145;-92
2023/01/01 05:01:20;;;;;;;;;;;15.90;99.90;;;;;;7348953;19;111132;-92
2023/01/01 05:03:47;;;;;;;;;;;15.90;99.90;;;;;;7348845;19;108442;-91
2023/01/01 05:06:14;;;;;;;;;;;15.90;99.90;;;;;;7349838;19;108637;-92
2023/01/01 05:08:43;;;;;;;;;;;15.80;99.90;;;;;;7349710;19;110847;-93
2023/01/01 05:11:14;;;;;;;;;;;15.80;99.90;;;;;;7349107;19;108394;-93
2023/01/01 05:13:42;;;;;;;;;;;15.80;99.90;;;;;;7349420;19;108643;-92
2023/01/01 05:16:10;;;;;;;;;;;15.90;99.90;;;;;;7348804;19;109475;-92
2023/01/01 05:18:38;;;;;;;;;;;15.90;99.90;;;;;;7353903;19;109223;-92
2023/01/01 05:21:10;;;;;;;;;;;15.90;99.90;;;;;;7349178;19;109404;-93
2023/01/01 05:23:37;;;;;;;;;;;15.90;99.90;;;;;;7348700;19;109073;-92
2023/01/01 05:26:11;;;;;;;;;;;15.90;99.90;;;;;;7349437;19;108713;-92
2023/01/01 05:28:39;;;;;;;;;;;15.80;99.90;;;;;;7349975;19;110556;-93
2023/01/01 05:31:07;;;;;;;;;;;15.90;99.90;;;;;;7348437;19;108869;-93
2023/01/01 05:33:35;;;;;;;;;;;15.90;99.90;;;;;;7348164;19;109387;-92
2023/01/01 05:36:03;;;;;;;;;;;15.90;99.90;;;;;;7347905;19;112714;-92
2023/01/01 05:38:30;;;;;;;;;;;15.80;99.90;;;;;;7348199;19;108842;-93
2023/01/01 05:40:57;;;;;;;;;;;15.80;99.90;;;;;;7353714;19;111644;-91
2023/01/01 05:43:24;;;;;;;;;;;15.80;99.90;;;;;;7347039;19;108470;-92
2023/01/01 05:46:05;;;;;;;;;;;15.80;99.90;;;;;;7348412;19;111741;-92
2023/01/01 05:48:34;;;;;;;;;;;15.80;99.90;;;;;;7346874;19;112269;-92
2023/01/01 05:51:05;;;;;;;;;;;15.80;99.90;;;;;;7347966;19;108543;-92
2023/01/01 05:53:32;;;;;;;;;;;15.80;99.90;;;;;;7346674;19;109205;-92
2023/01/01 05:56:00;;;;;;;;;;;15.80;99.90;;;;;;7348982;19;110275;-91
2023/01/01 05:58:27;;;;;;;;;;;15.80;99.90;;;;;;7347183;19;108423;-91
2023/01/01 06:00:54;;;;;;;;;;;15.80;99.90;;;;;;7350940;19;109261;-91
2023/01/01 06:03:21;;;;;;;;;;;15.80;99.90;;;;;;7352887;19;113168;-91
2023/01/01 06:05:48;;;;;;;;;;;15.80;99.90;;;;;;7347581;19;111763;-91
2023/01/01 06:08:15;;;;;;;;;;;15.80;99.90;;;;;;7345570;19;110675;-91
2023/01/01 06:10:42;;;;;;;;;;;15.80;99.90;;;;;;7347854;19;109306;-92
2023/01/01 06:13:09;;;;;;;;;;;15.80;99.90;;;;;;7347037;19;112141;-90
2023/01/01 06:15:39;;;;;;;;;;;15.70;99.90;;;;;;7348024;19;112670;-90
2023/01/01 06:18:06;;;;;;;;;;;15.80;99.90;;;;;;7347567;19;108809;-91
2023/01/01 06:20:33;;;;;;;;;;;15.70;99.90;;;;;;7347870;19;111626;-91
2023/01/01 06:23:00;;;;;;;;;;;15.70;99.90;;;;;;7348258;19;111679;-92
2023/01/01 06:25:27;;;;;;;;;;;15.70;99.90;;;;;;7353102;19;108625;-91
2023/01/01 06:27:54;;;;;;;;;;;15.70;99.90;;;;;;7346075;19;110573;-91
2023/01/01 06:30:20;;;;;;;;;;;15.70;99.90;;;;;;7347418;19;108362;-91
2023/01/01 06:32:47;;;;;;;;;;;15.70;99.90;;;;;;7348000;19;109287;-91
2023/01/01 06:35:14;;;;;;;;;;;15.60;99.90;;;;;;7348059;19;112926;-92
2023/01/01 06:37:41;;;;;;;;;;;15.60;99.90;;;;;;7348745;19;109578;-91
2023/01/01 06:40:08;;;;;;;;;;;15.60;99.90;;;;;;7346846;19;109251;-92
2023/01/01 06:42:35;;;;;;;;;;;15.50;99.90;;;;;;7346268;19;111451;-91
2023/01/01 06:45:02;;;;;;;;;;;15.50;99.90;;;;;;7347530;19;108493;-91
2023/01/01 06:47:32;;;;;;;;;;;15.50;99.90;;;;;;7349249;19;112138;-92
2023/01/01 06:49:59;;;;;;;;;;;15.40;99.90;;;;;;7345990;19;108861;-93
2023/01/01 06:52:26;;;;;;;;;;;15.40;99.90;;;;;;7345173;19;112100;-92
2023/01/01 06:54:53;;;;;;;;;;;15.30;99.90;;;;;;7347561;19;112916;-92
2023/01/01 06:57:19;;;;;;;;;;;15.30;99.90;;;;;;7346844;19;108786;-92
2023/01/01 06:59:46;;;;;;;;;;;15.30;99.90;;;;;;7348025;19;112739;-91
2023/01/01 07:02:13;;;;;;;;;;;15.20;99.90;;;;;;7345554;19;113394;-92
2023/01/01 07:04:41;;;;;;;;;;;15.20;99.90;;;;;;7346340;19;108260;-92
2023/01/01 07:07:08;;;;;;;;;;;15.10;99.90;;;;;;7351070;19;109424;-91
2023/01/01 07:09:35;;;;;;;;;;;15.10;99.90;;;;;;7345259;19;109006;-91
2023/01/01 07:12:01;;;;;;;;;;;15.10;99.90;;;;;;7347557;19;110479;-91
2023/01/01 07:14:28;;;;;;;;;;;15.00;99.90;;;;;;7346522;19;110381;-90
2023/01/01 07:16:56;;;;;;;;;;;15.00;99.90;;;;;;7345103;19;108809;-91
2023/01/01 07:19:23;;;;;;;;;;;15.00;99.90;;;;;;7345552;19;110361;-93
2023/01/01 07:21:53;;;;;;;;;;;15.00;99.90;;;;;;7346151;19;112033;-93
2023/01/01 07:24:20;;;;;;;;;;;14.90;99.90;;;;;;7344494;19;108846;-92
2023/01/01 07:26:48;;;;;;;;;;;14.90;99.90;;;;;;7345194;19;109088;-91
2023/01/01 07:29:14;;;;;;;;;;;14.90;99.90;;;;;;7348755;19;113624;-91
2023/01/01 07:31:42;;;;;;;;;;;14.80;99.90;;;;;;7345783;19;109518;-92
2023/01/01 07:34:14;;;;;;;;;;;14.80;99.90;;;;;;7343724;19;111449;-92
2023/01/01 07:36:41;;;;;;;;;;;14.80;99.90;;;;;;7345719;19;108467;-92
2023/01/01 07:39:08;;;;;;;;;;;14.70;99.90;;;;;;7345216;19;111944;-92
2023/01/01 07:41:35;;;;;;;;;;;14.70;99.90;;;;;;7344197;19;108899;-92
2023/01/01 07:44:03;;;;;;;;;;;14.60;99.90;;;;;;7344003;19;108464;-94
2023/01/01 07:46:30;;;;;;;;;;;14.60;99.90;;;;;;7344718;19;111714;-92
2023/01/01 07:48:57;;;;;;;;;;;14.60;99.90;;;;;;7344748;19;110440;-92
2023/01/01 07:51:24;;;;;;;;;;;14.60;99.90;;;;;;7347837;19;108388;-92
2023/01/01 07:53:50;;;;;;;;;;;14.60;99.90;;;;;;7345210;19;110696;-92
2023/01/01 07:56:17;;;;;;;;;;;14.60;99.90;;;;;;7343263;19;109791;-92
2023/01/01 07:58:44;;;;;;;;;;;14.60;99.90;;;;;;7345112;19;110569;-92
2023/01/01 08:01:13;;;;;;;;;;;14.60;99.90;;;;;;7344751;19;113440;-93
2023/01/01 08:03:40;;;;;;;;;;;14.50;99.90;;;;;;7342626;19;108865;-93
2023/01/01 08:06:08;;;;;;;;;;;14.50;99.90;;;;;;7342339;19;112002;-93
2023/01/01 08:08:35;;;;;;;;;;;14.50;99.90;;;;;;7340819;19;112130;-92
2023/01/01 08:11:02;;;;;;;;;;;14.50;99.90;;;;;;7343100;19;108376;-92
2023/01/01 08:13:30;;;;;;;;;;;14.50;99.90;;;;;;7344666;19;110726;-89
2023/01/01 08:15:57;;;;;;;;;;;14.50;99.90;;;;;;7342131;19;108921;-90
2023/01/01 08:18:24;;;;;;;;;;;14.50;99.90;;;;;;7344688;19;109318;-90
2023/01/01 08:20:52;;;;;;;;;;;14.50;99.90;;;;;;7349393;19;110833;-90
2023/01/01 08:23:19;;;;;;;;;;;14.50;99.90;;;;;;7349313;19;110194;-91
2023/01/01 08:25:46;;;;;;;;;;;14.50;99.90;;;;;;7349635;19;111779;-91
2023/01/01 08:28:12;;;;;;;;;;;14.60;99.90;;;;;;7348790;19;109547;-91
2023/01/01 08:30:39;;;;;;;;;;;14.60;99.90;;;;;;7349673;19;108478;-90
2023/01/01 08:33:06;;;;;;;;;;;14.60;99.90;;;;;;7347823;19;111616;-90
2023/01/01 08:35:34;;;;;;;;;;;14.60;99.90;;;;;;7353944;19;113433;-90
2023/01/01 08:38:01;;;;;;;;;;;14.50;99.90;;;;;;7348699;19;111717;-91
2023/01/01 08:40:28;;;;;;;;;;;14.50;99.90;;;;;;7348732;19;111751;-90
2023/01/01 08:42:55;;;;;;;;;;;14.50;99.90;;;;;;7348532;19;108951;-89
2023/01/01 08:45:22;;;;;;;;;;;14.50;99.90;;;;;;7346108;19;109414;-91
2023/01/01 08:47:49;;;;;;;;;;;14.60;99.90;;;;;;7346698;19;110774;-90
2023/01/01 08:50:16;;;;;;;;;;;14.60;99.90;;;;;;7347244;19;108859;-91
2023/01/01 08:52:43;;;;;;;;;;;14.50;99.90;;;;;;7346853;19;108346;-90
2023/01/01 08:55:10;;;;;;;;;;;14.50;99.90;;;;;;7344725;19;110046;-91
2023/01/01 08:57:36;;;;;;;;;;;14.50;99.90;;;;;;7351801;19;108513;-89
2023/01/01 09:00:04;;;;;;;;;;;14.50;99.90;;;;;;7346790;19;112159;-89
2023/01/01 09:02:31;;;;;;;;;;;14.50;99.90;;;;;;7345598;19;108667;-91
2023/01/01 09:04:58;;;;;;;;;;;14.50;99.90;;;;;;7346093;19;109180;-91
2023/01/01 09:07:25;;;;;;;;;;;14.50;99.90;;;;;;7346072;19;110862;-91
2023/01/01 09:09:52;;;;;;;;;;;14.50;99.90;;;;;;7350815;19;108314;-93
2023/01/01 09:12:19;;;;;;;;;;;14.50;99.90;;;;;;7348457;19;110615;-91
2023/01/01 09:14:46;;;;;;;;;;;14.50;99.90;;;;;;7347282;19;110132;-90
2023/01/01 09:17:13;;;;;;;;;;;14.50;99.90;;;;;;7352722;19;108372;-91
2023/01/01 09:19:40;;;;;;;;;;;14.50;99.90;;;;;;7346187;19;112357;-92
2023/01/01 09:22:08;;;;;;;;;;;14.60;99.90;;;;;;7349399;19;108572;-91
2023/01/01 09:24:35;;;;;;;;;;;14.50;99.90;;;;;;7346845;19;111864;-90
2023/01/01 09:27:02;;;;;;;;;;;14.60;99.90;;;;;;7346969;19;110287;-92
2023/01/01 09:29:29;;;;;;;;;;;14.60;99.90;;;;;;7341452;19;109574;-91
2023/01/01 09:31:56;;;;;;;;;;;14.70;99.90;;;;;;7346156;19;111335;-92
2023/01/01 09:34:23;;;;;;;;;;;14.60;99.90;;;;;;7346789;19;110874;-91
2023/01/01 09:36:50;;;;;;;;;;;14.60;99.90;;;;;;7347794;19;108635;-90
2023/01/01 09:39:17;;;;;;;;;;;14.70;99.90;;;;;;7351455;19;109627;-90
2023/01/01 09:41:47;;;;;;;;;;;14.70;99.90;;;;;;7345734;19;108517;-88
2023/01/01 09:44:33;;;;;;;;;;;14.70;99.90;;;;;;7347395;19;111909;-91
2023/01/01 09:47:01;;;;;;;;;;;14.70;99.90;;;;;;7346318;19;111672;-93
2023/01/01 09:49:31;;;;;;;;;;;14.70;99.90;;;;;;7344612;19;109102;-91
2023/01/01 09:52:00;;;;;;;;;;;14.80;99.90;;;;;;7343600;19;113720;-89
2023/01/01 09:54:28;;;;;;;;;;;14.70;99.90;;;;;;7343179;19;112901;-88
2023/01/01 09:56:57;;;;;;;;;;;14.70;99.90;;;;;;7345856;19;108326;-88
2023/01/01 09:59:24;;;;;;;;;;;14.70;99.90;;;;;;7344232;19;110486;-91
2023/01/01 10:01:59;;;;;;;;;;;14.70;99.90;;;;;;7351597;19;112988;-91
2023/01/01 10:04:32;;;;;;;;;;;14.80;99.90;;;;;;7344207;19;109165;-88
2023/01/01 10:07:16;;;;;;;;;;;14.80;99.90;;;;;;7339461;19;114359;-88
2023/01/01 10:10:01;;;;;;;;;;;14.70;99.90;;;;;;7342019;19;108399;-88
2023/01/01 10:12:28;;;;;;;;;;;14.80;99.90;;;;;;7340458;19;109615;-87
2023/01/01 10:15:16;;;;;;;;;;;14.80;99.90;;;;;;7341972;19;108851;-88
2023/01/01 10:17:45;;;;;;;;;;;14.70;99.90;;;;;;7342085;19;108601;-88
2023/01/01 10:20:24;;;;;;;;;;;14.80;99.90;;;;;;7341183;19;109537;-88
2023/01/01 10:22:53;;;;;;;;;;;14.80;99.90;;;;;;7341710;19;113576;-87
2023/01/01 10:25:28;;;;;;;;;;;14.90;99.90;;;;;;7349378;19;108831;-90
2023/01/01 10:28:04;;;;;;;;;;;14.80;99.90;;;;;;7344977;19;110692;-89
2023/01/01 10:30:31;;;;;;;;;;;14.90;99.90;;;;;;7341846;19;108334;-88
2023/01/01 10:32:58;;;;;;;;;;;14.90;99.90;;;;;;7341307;19;109529;-87
2023/01/01 10:35:31;;;;;;;;;;;15.00;99.90;;;;;;7338702;19;113148;-89
2023/01/01 10:37:58;;;;;;;;;;;14.90;99.90;;;;;;7340324;19;108853;-89
2023/01/01 10:40:26;;;;;;;;;;;15.00;99.90;;;;;;7337726;19;108799;-88
2023/01/01 10:42:55;;;;;;;;;;;15.00;99.90;;;;;;7340031;19;110329;-88
2023/01/01 10:45:41;;;;;;;;;;;15.00;99.90;;;;;;7339495;19;108601;-89
2023/01/01 10:48:16;;;;;;;;;;;15.10;99.90;;;;;;7346264;19;109846;-88
2023/01/01 10:50:44;;;;;;;;;;;15.20;99.90;;;;;;7341497;19;109867;-88
2023/01/01 10:53:30;;;;;;;;;;;15.20;99.90;;;;;;7340084;19;112544;-87
2023/01/01 10:55:59;;;;;;;;;;;15.30;99.90;;;;;;7338488;19;111593;-89
2023/01/01 10:58:35;;;;;;;;;;;15.30;99.90;;;;;;7340033;19;108385;-89
2023/01/01 11:01:04;;;;;;;;;;;15.30;99.90;;;;;;7338669;19;111428;-88
2023/01/01 11:03:31;;;;;;;;;;;15.40;99.90;;;;;;7335903;19;109916;-87
2023/01/01 11:06:17;;;;;;;;;;;15.40;99.90;;;;;;7338066;19;108940;-88
2023/01/01 11:08:48;;;;;;;;;;;15.40;99.90;;;;;;7342730;19;112391;-86
2023/01/01 11:11:20;;;;;;;;;;;15.50;99.90;;;;;;7338464;19;108744;-87
2023/01/01 11:14:10;;;;;;;;;;;;;;;;;;;;;
2023/01/01 11:17:01;;;;;;;;;;;15.50;99.90;;;;;;7338003;19;110408;-88
2023/01/01 11:19:28;;;;;;;;;;;15.60;99.90;;;;;;7335830;19;108926;-87
2023/01/01 11:21:55;;;;;;;;;;;15.60;99.90;;;;;;7337395;19;109477;-87
2023/01/01 11:24:23;;;;;;;;;;;15.50;99.90;;;;;;7338668;19;110006;-86
2023/01/01 11:26:51;;;;;;;;;;;15.50;99.90;;;;;;7340383;19;108506;-89
2023/01/01 11:29:26;;;;;;;;;;;15.60;99.90;;;;;;7337103;19;109645;-88
2023/01/01 11:31:54;;;;;;;;;;;15.60;99.90;;;;;;7341914;19;110460;-87
2023/01/01 11:34:24;;;;;;;;;;;15.70;99.90;;;;;;7337289;19;109532;-87
2023/01/01 11:36:51;;;;;;;;;;;15.70;99.90;;;;;;7337657;19;110760;-85
2023/01/01 11:39:23;;;;;;;;;;;15.70;99.90;;;;;;7337403;19;109026;-88
2023/01/01 11:41:51;;;;;;;;;;;15.60;99.90;;;;;;7339240;19;109431;-86
2023/01/01 11:44:34;;;;;;;;;;;15.70;99.90;;;;;;7334530;19;110907;-86
2023/01/01 11:47:01;;;;;;;;;;;15.70;99.90;;;;;;7337450;19;108732;-86
2023/01/01 11:49:29;;;;;;;;;;;15.70;99.90;;;;;;7333850;19;112224;-86
2023/01/01 11:51:56;;;;;;;;;;;15.70;99.90;;;;;;7343979;19;110245;-87
2023/01/01 11:54:31;;;;;;;;;;;15.70;99.90;;;;;;7347576;19;109661;-87
2023/01/01 11:57:03;;;;;;;;;;;15.70;99.90;;;;;;7342891;19;109841;-87
2023/01/01 11:59:38;;;;;;;;;;;15.70;99.90;;;;;;7342687;19;108629;-88
2023/01/01 12:02:09;;;;;;;;;;;15.70;99.90;;;;;;7343836;19;109530;-88
2023/01/01 12:04:38;;;;;;;;;;;15.70;99.90;;;;;;7343590;19;112535;-88
2023/01/01 12:07:07;;;;;;;;;;;15.70;99.90;;;;;;7345552;19;108802;-87
2023/01/01 12:09:39;;;;;;;;;;;15.70;99.90;;;;;;7342267;19;112575;-88
2023/01/01 12:12:08;;;;;;;;;;;15.70;99.90;;;;;;7342630;19;110485;-87
2023/01/01 12:14:38;;;;;;;;;;;15.70;99.90;;;;;;7344748;19;109143;-88
2023/01/01 12:17:20;;;;;;;;;;;15.80;99.90;;;;;;7348647;19;110589;-87
2023/01/01 12:19:53;;;;;;;;;;;15.80;99.90;;;;;;7344415;19;108943;-88
2023/01/01 12:22:20;;;;;;;;;;;15.90;99.90;;;;;;7345807;19;109469;-87
2023/01/01 12:24:47;;;;;;;;;;;15.90;99.90;;;;;;7343670;19;110018;-88
2023/01/01 12:27:14;;;;;;;;;;;15.90;99.90;;;;;;7343485;19;108613;-89
2023/01/01 12:29:47;;;;;;;;;;;15.80;99.90;;;;;;7343187;19;112050;-87
2023/01/01 12:32:17;;;;;;;;;;;15.80;99.90;;;;;;7345475;19;114964;-87
2023/01/01 12:34:49;;;;;;;;;;;15.80;99.90;;;;;;7344844;19;108282;-88
2023/01/01 12:37:36;;;;;;;;;;;15.80;99.90;;;;;;7341439;19;109395;-88
2023/01/01 12:40:03;;;;;;;;;;;15.80;99.90;;;;;;7350178;19;111766;-88
2023/01/01 12:42:41;;;;;;;;;;;15.80;99.90;;;;;;7341583;19;109836;-86
2023/01/01 12:45:28;;;;;;;;;;;15.70;99.90;;;;;;7346483;19;110394;-87
2023/01/01 12:48:20;;;;;;;;;;;15.70;99.90;;;;;;7342498;19;109743;-87
2023/01/01 12:51:06;;;;;;;;;;;15.70;99.90;;;;;;7340415;19;109749;-88
2023/01/01 12:53:42;;;;;;;;;;;15.60;99.90;;;;;;7337700;19;110556;-86
2023/01/01 12:56:27;;;;;;;;;;;15.60;99.90;;;;;;7339900;19;108463;-88
2023/01/01 12:58:59;;;;;;;;;;;15.50;99.90;;;;;;7339900;19;108475;-87
2023/01/01 13:01:28;;;;;;;;;;;15.50;99.90;;;;;;7339336;19;110410;-87
2023/01/01 13:04:01;;;;;;;;;;;15.50;99.90;;;;;;7341333;19;109205;-88
2023/01/01 13:06:47;;;;;;;;;;;15.60;99.90;;;;;;7338273;19;110341;-87
2023/01/01 13:09:17;;;;;;;;;;;15.60;99.90;;;;;;7342722;19;109863;-90
2023/01/01 13:11:45;;;;;;;;;;;15.50;99.90;;;;;;7342718;19;109863;-87
2023/01/01 13:14:13;;;;;;;;;;;15.50;99.90;;;;;;7343917;19;110903;-91
2023/01/01 13:16:40;;;;;;;;;;;15.50;99.90;;;;;;7343925;19;108430;-90
2023/01/01 13:19:30;;;;;;;;;;;15.50;99.90;;;;;;7344170;19;108945;-89
2023/01/01 13:21:57;;;;;;;;;;;15.40;99.90;;;;;;7342165;19;113687;-93
2023/01/01 13:24:25;;;;;;;;;;;15.40;99.90;;;;;;7348079;19;108516;-93
2023/01/01 13:26:53;;;;;;;;;;;15.30;99.90;;;;;;7344410;19;112611;-94
2023/01/01 13:29:19;;;;;;;;;;;15.30;99.90;;;;;;7348642;19;108541;-90
2023/01/01 13:31:46;;;;;;;;;;;15.30;99.90;;;;;;7347779;19;108880;-90
2023/01/01 13:34:29;;;;;;;;;;;15.30;99.90;;;;;;7348116;19;110329;-90
2023/01/01 13:37:13;;;;;;;;;;;15.40;99.90;;;;;;7348678;19;108766;-89
2023/01/01 13:39:49;;;;;;;;;;;15.40;99.90;;;;;;7347847;19;109330;-90
2023/01/01 13:42:35;;;;;;;;;;;15.30;99.90;;;;;;7349062;19;109308;-90
2023/01/01 13:45:02;;;;;;;;;;;15.30;99.90;;;;;;7347546;19;111564;-90
2023/01/01 13:47:29;;;;;;;;;;;15.30;99.90;;;;;;7352144;19;110742;-93
2023/01/01 13:50:02;;;;;;;;;;;15.20;99.90;;;;;;7346850;19;108544;-93
2023/01/01 13:52:38;;;;;;;;;;;15.20;99.90;;;;;;7348283;19;112949;-90
2023/01/01 13:55:08;;;;;;;;;;;15.20;99.90;;;;;;7346220;19;113149;-90
2023/01/01 13:57:41;;;;;;;;;;;15.20;99.90;;;;;;7348044;19;108536;-89
2023/01/01 14:00:15;;;;;;;;;;;15.20;99.90;;;;;;7345267;19;112077;-92
2023/01/01 14:02:45;;;;;;;;;;;15.20;99.90;;;;;;7346785;19;111739;-91
2023/01/01 14:05:17;;;;;;;;;;;15.10;99.90;;;;;;7346532;19;110536;-92
2023/01/01 14:07:51;;;;;;;;;;;15.10;99.90;;;;;;7348443;19;108660;-91
2023/01/01 14:10:22;;;;;;;;;;;15.10;99.90;;;;;;7350180;19;110337;-91
2023/01/01 14:12:49;;;;;;;;;;;15.10;99.90;;;;;;7349761;19;109599;-90
2023/01/01 14:15:26;;;;;;;;;;;15.10;99.90;;;;;;7344387;19;110750;-91
2023/01/01 14:17:55;;;;;;;;;;;15.10;99.90;;;;;;7345505;19;108482;-91
2023/01/01 14:20:26;;;;;;;;;;;15.10;99.90;;;;;;7344986;19;109384;-91
2023/01/01 14:22:53;;;;;;;;;;;15.00;99.90;;;;;;7347641;19;111487;-91
2023/01/01 14:25:27;;;;;;;;;;;15.10;99.90;;;;;;7347968;19;108538;-91
2023/01/01 14:27:55;;;;;;;;;;;15.00;99.90;;;;;;7347441;19;109069;-90
2023/01/01 14:30:23;;;;;;;;;;;15.00;99.90;;;;;;7345304;19;111690;-91